sensor_id;sensor_type;location;lat;lon;timestamp;P1;durP1;ratioP1;P2;durP2;ratioP2
11837;SDS011;5978;51.020;6.764;2022-12-18T00:01:41;26.10;;;12.10;;
11837;SDS011;5978;51.020;6.764;2022-12-18T00:04:07;21.80;;;11.33;;
11837;SDS011;5978;51.020;6.764;2022-12-18T00:06:40;20.67;;;11.25;;
11837;SDS011;5978;51.020;6.764;2022-12-18T00:09:05;26.47;;;11.40;;
11837;SDS011;5978;51.020;6.764;2022-12-18T00:11:31;19.07;;;9.47;;
11837;SDS011;5978;51.020;6.764;2022-12-18T00:13:57;20.67;;;10.83;;
11837;SDS011;5978;51.020;6.764;2022-12-18T00:16:24;25.08;;;11.38;;
11837;SDS011;5978;51.020;6.764;2022-12-18T00:18:52;25.17;;;12.90;;
11837;SDS011;5978;51.020;6.764;2022-12-18T00:21:19;13.60;;;10.18;;
11837;SDS011;5978;51.020;6.764;2022-12-18T00:23:46;24.67;;;11.50;;
11837;SDS011;5978;51.020;6.764;2022-12-18T00:26:13;22.30;;;10.35;;
11837;SDS011;5978;51.020;6.764;2022-12-18T00:28:44;18.65;;;10.43;;
11837;SDS011;5978;51.020;6.764;2022-12-18T00:31:12;17.50;;;9.75;;
11837;SDS011;5978;51.020;6.764;2022-12-18T00:33:42;20.17;;;9.65;;
11837;SDS011;5978;51.020;6.764;2022-12-18T00:36:15;16.90;;;10.25;;
11837;SDS011;5978;51.020;6.764;2022-12-18T00:38:42;26.45;;;11.13;;
11837;SDS011;5978;51.020;6.764;2022-12-18T00:41:09;24.35;;;12.23;;
11837;SDS011;5978;51.020;6.764;2022-12-18T00:43:36;17.20;;;10.50;;
11837;SDS011;5978;51.020;6.764;2022-12-18T00:46:02;21.40;;;11.23;;
11837;SDS011;5978;51.020;6.764;2022-12-18T00:48:28;20.93;;;11.10;;
11837;SDS011;5978;51.020;6.764;2022-12-18T00:50:54;18.97;;;10.53;;
11837;SDS011;5978;51.020;6.764;2022-12-18T00:53:19;23.17;;;11.10;;
11837;SDS011;5978;51.020;6.764;2022-12-18T00:55:45;19.53;;;9.47;;
11837;SDS011;5978;51.020;6.764;2022-12-18T00:58:12;22.63;;;10.23;;
11837;SDS011;5978;51.020;6.764;2022-12-18T01:00:39;19.02;;;10.30;;
11837;SDS011;5978;51.020;6.764;2022-12-18T01:03:05;18.17;;;9.95;;
11837;SDS011;5978;51.020;6.764;2022-12-18T01:05:31;27.33;;;10.77;;
11837;SDS011;5978;51.020;6.764;2022-12-18T01:07:58;24.23;;;10.60;;
11837;SDS011;5978;51.020;6.764;2022-12-18T01:10:23;25.42;;;10.48;;
11837;SDS011;5978;51.020;6.764;2022-12-18T01:12:49;22.88;;;11.90;;
11837;SDS011;5978;51.020;6.764;2022-12-18T01:15:15;20.52;;;9.73;;
11837;SDS011;5978;51.020;6.764;2022-12-18T01:17:42;18.35;;;10.57;;
11837;SDS011;5978;51.020;6.764;2022-12-18T01:20:08;21.83;;;10.82;;
11837;SDS011;5978;51.020;6.764;2022-12-18T01:22:35;14.75;;;9.55;;
11837;SDS011;5978;51.020;6.764;2022-12-18T01:25:00;23.45;;;10.52;;
11837;SDS011;5978;51.020;6.764;2022-12-18T01:27:26;26.80;;;11.90;;
11837;SDS011;5978;51.020;6.764;2022-12-18T01:29:52;19.57;;;10.00;;
11837;SDS011;5978;51.020;6.764;2022-12-18T01:32:17;19.67;;;10.93;;
11837;SDS011;5978;51.020;6.764;2022-12-18T01:34:43;21.63;;;10.40;;
11837;SDS011;5978;51.020;6.764;2022-12-18T01:37:09;17.75;;;10.88;;
11837;SDS011;5978;51.020;6.764;2022-12-18T01:39:35;21.67;;;11.00;;
11837;SDS011;5978;51.020;6.764;2022-12-18T01:42:05;18.80;;;11.10;;
11837;SDS011;5978;51.020;6.764;2022-12-18T01:47:34;20.67;;;10.63;;
11837;SDS011;5978;51.020;6.764;2022-12-18T01:50:06;19.30;;;10.55;;
11837;SDS011;5978;51.020;6.764;2022-12-18T01:52:32;22.80;;;12.10;;
11837;SDS011;5978;51.020;6.764;2022-12-18T01:54:59;23.52;;;11.63;;
11837;SDS011;5978;51.020;6.764;2022-12-18T01:57:26;21.20;;;12.35;;
11837;SDS011;5978;51.020;6.764;2022-12-18T01:59:53;27.40;;;11.63;;
11837;SDS011;5978;51.020;6.764;2022-12-18T02:02:24;21.88;;;11.23;;
11837;SDS011;5978;51.020;6.764;2022-12-18T02:04:53;14.73;;;10.13;;
11837;SDS011;5978;51.020;6.764;2022-12-18T02:07:40;23.73;;;11.03;;
11837;SDS011;5978;51.020;6.764;2022-12-18T02:15:18;23.98;;;11.10;;
11837;SDS011;5978;51.020;6.764;2022-12-18T02:17:54;16.08;;;10.23;;
11837;SDS011;5978;51.020;6.764;2022-12-18T02:20:35;20.48;;;10.90;;
11837;SDS011;5978;51.020;6.764;2022-12-18T02:28:44;20.50;;;10.43;;
11837;SDS011;5978;51.020;6.764;2022-12-18T02:31:14;21.00;;;10.70;;
11837;SDS011;5978;51.020;6.764;2022-12-18T02:33:44;18.23;;;11.10;;
11837;SDS011;5978;51.020;6.764;2022-12-18T02:36:11;19.30;;;10.55;;
11837;SDS011;5978;51.020;6.764;2022-12-18T02:38:39;22.77;;;10.25;;
11837;SDS011;5978;51.020;6.764;2022-12-18T02:41:07;26.98;;;10.40;;
11837;SDS011;5978;51.020;6.764;2022-12-18T02:43:33;19.93;;;11.70;;
11837;SDS011;5978;51.020;6.764;2022-12-18T02:45:59;21.20;;;11.47;;
11837;SDS011;5978;51.020;6.764;2022-12-18T02:48:31;26.02;;;11.43;;
11837;SDS011;5978;51.020;6.764;2022-12-18T02:51:08;19.95;;;10.02;;
11837;SDS011;5978;51.020;6.764;2022-12-18T02:53:49;24.83;;;11.95;;
11837;SDS011;5978;51.020;6.764;2022-12-18T02:56:19;19.58;;;12.55;;
11837;SDS011;5978;51.020;6.764;2022-12-18T02:59:02;16.00;;;11.00;;
11837;SDS011;5978;51.020;6.764;2022-12-18T03:01:41;16.35;;;9.98;;
11837;SDS011;5978;51.020;6.764;2022-12-18T03:04:20;21.25;;;11.80;;
11837;SDS011;5978;51.020;6.764;2022-12-18T03:07:09;18.42;;;10.10;;
11837;SDS011;5978;51.020;6.764;2022-12-18T03:09:43;17.92;;;10.27;;
11837;SDS011;5978;51.020;6.764;2022-12-18T03:12:20;21.90;;;11.60;;
11837;SDS011;5978;51.020;6.764;2022-12-18T03:17:43;21.13;;;12.38;;
11837;SDS011;5978;51.020;6.764;2022-12-18T03:20:14;19.33;;;8.95;;
11837;SDS011;5978;51.020;6.764;2022-12-18T03:22:44;25.40;;;12.73;;
11837;SDS011;5978;51.020;6.764;2022-12-18T03:25:14;19.27;;;11.10;;
11837;SDS011;5978;51.020;6.764;2022-12-18T03:27:43;20.80;;;10.43;;
11837;SDS011;5978;51.020;6.764;2022-12-18T03:30:16;20.50;;;11.80;;
11837;SDS011;5978;51.020;6.764;2022-12-18T03:32:43;18.20;;;10.68;;
11837;SDS011;5978;51.020;6.764;2022-12-18T03:35:26;21.77;;;11.52;;
11837;SDS011;5978;51.020;6.764;2022-12-18T03:37:54;21.42;;;10.38;;
11837;SDS011;5978;51.020;6.764;2022-12-18T03:40:21;22.23;;;12.67;;
11837;SDS011;5978;51.020;6.764;2022-12-18T03:42:56;25.90;;;11.70;;
11837;SDS011;5978;51.020;6.764;2022-12-18T03:45:32;18.23;;;10.07;;
11837;SDS011;5978;51.020;6.764;2022-12-18T03:48:06;25.25;;;11.65;;
11837;SDS011;5978;51.020;6.764;2022-12-18T03:51:18;19.92;;;10.40;;
11837;SDS011;5978;51.020;6.764;2022-12-18T03:56:06;17.10;;;10.60;;
11837;SDS011;5978;51.020;6.764;2022-12-18T03:58:34;20.55;;;10.75;;
11837;SDS011;5978;51.020;6.764;2022-12-18T04:01:03;19.58;;;11.50;;
11837;SDS011;5978;51.020;6.764;2022-12-18T04:03:32;16.42;;;10.77;;
11837;SDS011;5978;51.020;6.764;2022-12-18T04:05:59;23.58;;;10.95;;
11837;SDS011;5978;51.020;6.764;2022-12-18T04:08:26;24.30;;;11.25;;
11837;SDS011;5978;51.020;6.764;2022-12-18T04:10:53;20.10;;;10.77;;
11837;SDS011;5978;51.020;6.764;2022-12-18T04:13:23;17.77;;;10.23;;
11837;SDS011;5978;51.020;6.764;2022-12-18T04:15:49;22.20;;;10.63;;
11837;SDS011;5978;51.020;6.764;2022-12-18T04:18:15;19.67;;;11.10;;
11837;SDS011;5978;51.020;6.764;2022-12-18T04:20:41;16.50;;;9.00;;
11837;SDS011;5978;51.020;6.764;2022-12-18T04:23:06;22.53;;;10.40;;
11837;SDS011;5978;51.020;6.764;2022-12-18T04:25:32;26.20;;;13.13;;
11837;SDS011;5978;51.020;6.764;2022-12-18T04:27:57;24.10;;;11.60;;
11837;SDS011;5978;51.020;6.764;2022-12-18T04:30:23;20.20;;;11.03;;
11837;SDS011;5978;51.020;6.764;2022-12-18T04:32:48;21.10;;;10.47;;
11837;SDS011;5978;51.020;6.764;2022-12-18T04:35:14;18.23;;;11.47;;
11837;SDS011;5978;51.020;6.764;2022-12-18T04:37:39;28.93;;;11.83;;
11837;SDS011;5978;51.020;6.764;2022-12-18T04:40:05;19.20;;;11.50;;
11837;SDS011;5978;51.020;6.764;2022-12-18T04:42:31;17.85;;;11.18;;
11837;SDS011;5978;51.020;6.764;2022-12-18T04:44:57;15.50;;;10.23;;
11837;SDS011;5978;51.020;6.764;2022-12-18T04:47:22;23.07;;;10.73;;
11837;SDS011;5978;51.020;6.764;2022-12-18T04:49:48;22.80;;;12.43;;
11837;SDS011;5978;51.020;6.764;2022-12-18T04:52:13;21.97;;;11.77;;
11837;SDS011;5978;51.020;6.764;2022-12-18T04:54:39;21.30;;;11.43;;
11837;SDS011;5978;51.020;6.764;2022-12-18T04:57:05;23.63;;;13.17;;
11837;SDS011;5978;51.020;6.764;2022-12-18T04:59:30;19.00;;;10.67;;
11837;SDS011;5978;51.020;6.764;2022-12-18T05:01:56;16.30;;;10.90;;
11837;SDS011;5978;51.020;6.764;2022-12-18T05:04:21;27.50;;;12.67;;
11837;SDS011;5978;51.020;6.764;2022-12-18T05:06:47;15.00;;;10.27;;
11837;SDS011;5978;51.020;6.764;2022-12-18T05:09:12;26.10;;;10.90;;
11837;SDS011;5978;51.020;6.764;2022-12-18T05:11:38;18.63;;;10.60;;
11837;SDS011;5978;51.020;6.764;2022-12-18T05:14:03;22.73;;;11.10;;
11837;SDS011;5978;51.020;6.764;2022-12-18T05:16:29;27.27;;;11.80;;
11837;SDS011;5978;51.020;6.764;2022-12-18T05:18:54;25.50;;;12.50;;
11837;SDS011;5978;51.020;6.764;2022-12-18T05:21:20;23.70;;;11.47;;
11837;SDS011;5978;51.020;6.764;2022-12-18T05:23:46;24.53;;;12.60;;
11837;SDS011;5978;51.020;6.764;2022-12-18T05:26:16;21.53;;;11.93;;
11837;SDS011;5978;51.020;6.764;2022-12-18T05:28:43;28.35;;;14.15;;
11837;SDS011;5978;51.020;6.764;2022-12-18T05:31:09;23.57;;;12.10;;
11837;SDS011;5978;51.020;6.764;2022-12-18T05:33:35;22.07;;;12.27;;
11837;SDS011;5978;51.020;6.764;2022-12-18T05:36:01;21.15;;;11.80;;
11837;SDS011;5978;51.020;6.764;2022-12-18T05:38:29;27.10;;;13.90;;
11837;SDS011;5978;51.020;6.764;2022-12-18T05:40:56;23.67;;;12.38;;
11837;SDS011;5978;51.020;6.764;2022-12-18T05:43:22;23.30;;;12.43;;
11837;SDS011;5978;51.020;6.764;2022-12-18T05:45:49;21.42;;;12.30;;
11837;SDS011;5978;51.020;6.764;2022-12-18T05:48:16;18.80;;;11.85;;
11837;SDS011;5978;51.020;6.764;2022-12-18T05:50:42;18.88;;;10.18;;
11837;SDS011;5978;51.020;6.764;2022-12-18T05:53:10;29.10;;;12.43;;
11837;SDS011;5978;51.020;6.764;2022-12-18T05:55:37;27.58;;;12.77;;
11837;SDS011;5978;51.020;6.764;2022-12-18T05:58:04;27.20;;;14.23;;
11837;SDS011;5978;51.020;6.764;2022-12-18T06:00:32;25.85;;;13.13;;
11837;SDS011;5978;51.020;6.764;2022-12-18T06:02:59;25.38;;;13.02;;
11837;SDS011;5978;51.020;6.764;2022-12-18T06:05:25;18.13;;;11.00;;
11837;SDS011;5978;51.020;6.764;2022-12-18T06:07:52;22.50;;;11.93;;
11837;SDS011;5978;51.020;6.764;2022-12-18T06:10:17;23.00;;;11.13;;
11837;SDS011;5978;51.020;6.764;2022-12-18T06:12:43;19.63;;;11.57;;
11837;SDS011;5978;51.020;6.764;2022-12-18T06:15:09;26.30;;;15.37;;
11837;SDS011;5978;51.020;6.764;2022-12-18T06:17:34;20.83;;;11.30;;
11837;SDS011;5978;51.020;6.764;2022-12-18T06:20:00;26.50;;;12.88;;
11837;SDS011;5978;51.020;6.764;2022-12-18T06:22:26;24.93;;;13.10;;
11837;SDS011;5978;51.020;6.764;2022-12-18T06:24:52;32.10;;;13.63;;
11837;SDS011;5978;51.020;6.764;2022-12-18T06:27:18;27.27;;;13.20;;
11837;SDS011;5978;51.020;6.764;2022-12-18T06:29:43;23.03;;;12.57;;
11837;SDS011;5978;51.020;6.764;2022-12-18T06:32:09;29.03;;;12.70;;
11837;SDS011;5978;51.020;6.764;2022-12-18T06:34:36;21.97;;;12.90;;
11837;SDS011;5978;51.020;6.764;2022-12-18T06:37:02;24.55;;;12.88;;
11837;SDS011;5978;51.020;6.764;2022-12-18T06:39:28;20.47;;;12.90;;
11837;SDS011;5978;51.020;6.764;2022-12-18T06:41:54;18.17;;;11.57;;
11837;SDS011;5978;51.020;6.764;2022-12-18T06:44:20;27.03;;;11.80;;
11837;SDS011;5978;51.020;6.764;2022-12-18T06:46:45;28.03;;;12.83;;
11837;SDS011;5978;51.020;6.764;2022-12-18T06:49:11;21.23;;;11.30;;
11837;SDS011;5978;51.020;6.764;2022-12-18T06:51:37;22.52;;;12.43;;
11837;SDS011;5978;51.020;6.764;2022-12-18T06:54:03;28.83;;;12.80;;
11837;SDS011;5978;51.020;6.764;2022-12-18T06:56:28;35.90;;;15.10;;
11837;SDS011;5978;51.020;6.764;2022-12-18T06:58:54;23.13;;;12.97;;
11837;SDS011;5978;51.020;6.764;2022-12-18T07:01:20;29.37;;;13.97;;
11837;SDS011;5978;51.020;6.764;2022-12-18T07:03:46;22.42;;;12.10;;
11837;SDS011;5978;51.020;6.764;2022-12-18T07:06:17;27.08;;;16.23;;
11837;SDS011;5978;51.020;6.764;2022-12-18T07:08:44;27.00;;;12.90;;
11837;SDS011;5978;51.020;6.764;2022-12-18T07:11:10;24.52;;;12.82;;
11837;SDS011;5978;51.020;6.764;2022-12-18T07:13:36;23.70;;;12.80;;
11837;SDS011;5978;51.020;6.764;2022-12-18T07:16:08;22.67;;;14.20;;
11837;SDS011;5978;51.020;6.764;2022-12-18T07:18:36;25.35;;;13.52;;
11837;SDS011;5978;51.020;6.764;2022-12-18T07:21:02;22.73;;;12.30;;
11837;SDS011;5978;51.020;6.764;2022-12-18T07:23:29;19.10;;;11.73;;
11837;SDS011;5978;51.020;6.764;2022-12-18T07:25:55;28.43;;;13.70;;
11837;SDS011;5978;51.020;6.764;2022-12-18T07:28:20;30.50;;;12.60;;
11837;SDS011;5978;51.020;6.764;2022-12-18T07:30:46;21.10;;;11.67;;
11837;SDS011;5978;51.020;6.764;2022-12-18T07:33:11;24.13;;;13.83;;
11837;SDS011;5978;51.020;6.764;2022-12-18T07:35:37;24.67;;;11.03;;
11837;SDS011;5978;51.020;6.764;2022-12-18T07:38:02;27.60;;;13.63;;
11837;SDS011;5978;51.020;6.764;2022-12-18T07:40:28;24.77;;;12.77;;
11837;SDS011;5978;51.020;6.764;2022-12-18T07:42:53;18.47;;;11.00;;
11837;SDS011;5978;51.020;6.764;2022-12-18T07:45:19;37.60;;;11.97;;
11837;SDS011;5978;51.020;6.764;2022-12-18T07:47:44;18.87;;;11.97;;
11837;SDS011;5978;51.020;6.764;2022-12-18T07:50:10;20.90;;;12.37;;
11837;SDS011;5978;51.020;6.764;2022-12-18T07:52:36;23.67;;;11.77;;
11837;SDS011;5978;51.020;6.764;2022-12-18T07:55:02;23.90;;;14.10;;
11837;SDS011;5978;51.020;6.764;2022-12-18T07:57:27;22.93;;;14.07;;
11837;SDS011;5978;51.020;6.764;2022-12-18T07:59:53;24.50;;;12.17;;
11837;SDS011;5978;51.020;6.764;2022-12-18T08:02:18;20.53;;;12.37;;
11837;SDS011;5978;51.020;6.764;2022-12-18T08:04:44;26.77;;;11.93;;
11837;SDS011;5978;51.020;6.764;2022-12-18T08:07:09;31.83;;;14.97;;
11837;SDS011;5978;51.020;6.764;2022-12-18T08:09:35;29.40;;;11.97;;
11837;SDS011;5978;51.020;6.764;2022-12-18T08:12:00;20.73;;;12.10;;
11837;SDS011;5978;51.020;6.764;2022-12-18T08:14:26;25.53;;;12.50;;
11837;SDS011;5978;51.020;6.764;2022-12-18T08:16:51;25.33;;;12.27;;
11837;SDS011;5978;51.020;6.764;2022-12-18T08:19:17;22.10;;;11.23;;
11837;SDS011;5978;51.020;6.764;2022-12-18T08:21:42;21.70;;;11.83;;
11837;SDS011;5978;51.020;6.764;2022-12-18T08:24:08;22.73;;;13.80;;
11837;SDS011;5978;51.020;6.764;2022-12-18T08:26:34;21.77;;;12.53;;
11837;SDS011;5978;51.020;6.764;2022-12-18T08:28:59;23.77;;;13.50;;
11837;SDS011;5978;51.020;6.764;2022-12-18T08:31:25;28.33;;;12.63;;
11837;SDS011;5978;51.020;6.764;2022-12-18T08:33:52;22.17;;;12.05;;
11837;SDS011;5978;51.020;6.764;2022-12-18T08:36:19;28.55;;;13.38;;
11837;SDS011;5978;51.020;6.764;2022-12-18T08:38:45;24.08;;;12.40;;
11837;SDS011;5978;51.020;6.764;2022-12-18T08:41:12;23.10;;;12.65;;
11837;SDS011;5978;51.020;6.764;2022-12-18T08:43:39;25.55;;;12.05;;
11837;SDS011;5978;51.020;6.764;2022-12-18T08:46:26;25.05;;;11.77;;
11837;SDS011;5978;51.020;6.764;2022-12-18T08:48:53;23.75;;;12.95;;
11837;SDS011;5978;51.020;6.764;2022-12-18T08:51:20;30.15;;;12.10;;
11837;SDS011;5978;51.020;6.764;2022-12-18T08:53:46;29.47;;;13.97;;
11837;SDS011;5978;51.020;6.764;2022-12-18T08:56:11;27.10;;;13.20;;
11837;SDS011;5978;51.020;6.764;2022-12-18T08:58:38;29.63;;;14.93;;
11837;SDS011;5978;51.020;6.764;2022-12-18T09:01:05;21.98;;;11.52;;
11837;SDS011;5978;51.020;6.764;2022-12-18T09:03:34;19.85;;;11.32;;
11837;SDS011;5978;51.020;6.764;2022-12-18T09:05:59;24.10;;;12.10;;
11837;SDS011;5978;51.020;6.764;2022-12-18T09:08:25;28.93;;;13.30;;
11837;SDS011;5978;51.020;6.764;2022-12-18T09:10:51;20.85;;;11.63;;
11837;SDS011;5978;51.020;6.764;2022-12-18T09:13:17;27.10;;;11.27;;
11837;SDS011;5978;51.020;6.764;2022-12-18T09:15:44;28.40;;;13.10;;
11837;SDS011;5978;51.020;6.764;2022-12-18T09:18:11;23.67;;;12.02;;
11837;SDS011;5978;51.020;6.764;2022-12-18T09:20:38;18.75;;;12.00;;
11837;SDS011;5978;51.020;6.764;2022-12-18T09:23:04;28.00;;;10.65;;
11837;SDS011;5978;51.020;6.764;2022-12-18T09:25:30;22.85;;;11.63;;
11837;SDS011;5978;51.020;6.764;2022-12-18T09:27:58;17.80;;;10.75;;
11837;SDS011;5978;51.020;6.764;2022-12-18T09:30:24;16.17;;;10.50;;
11837;SDS011;5978;51.020;6.764;2022-12-18T09:32:50;21.97;;;11.40;;
11837;SDS011;5978;51.020;6.764;2022-12-18T09:35:16;21.93;;;13.00;;
11837;SDS011;5978;51.020;6.764;2022-12-18T09:37:42;23.23;;;13.30;;
11837;SDS011;5978;51.020;6.764;2022-12-18T09:40:12;32.10;;;12.03;;
11837;SDS011;5978;51.020;6.764;2022-12-18T09:42:41;18.48;;;10.90;;
11837;SDS011;5978;51.020;6.764;2022-12-18T09:45:12;17.75;;;11.00;;
11837;SDS011;5978;51.020;6.764;2022-12-18T09:47:39;23.20;;;12.68;;
11837;SDS011;5978;51.020;6.764;2022-12-18T09:50:22;21.55;;;11.85;;
11837;SDS011;5978;51.020;6.764;2022-12-18T09:52:58;20.73;;;11.65;;
11837;SDS011;5978;51.020;6.764;2022-12-18T09:55:34;23.80;;;12.00;;
11837;SDS011;5978;51.020;6.764;2022-12-18T09:58:17;23.25;;;11.57;;
11837;SDS011;5978;51.020;6.764;2022-12-18T10:00:44;17.85;;;11.10;;
11837;SDS011;5978;51.020;6.764;2022-12-18T10:03:11;24.65;;;12.05;;
11837;SDS011;5978;51.020;6.764;2022-12-18T10:05:52;23.02;;;13.70;;
11837;SDS011;5978;51.020;6.764;2022-12-18T10:08:49;22.08;;;11.63;;
11837;SDS011;5978;51.020;6.764;2022-12-18T10:13:46;21.57;;;14.07;;
11837;SDS011;5978;51.020;6.764;2022-12-18T10:16:19;29.20;;;13.27;;
11837;SDS011;5978;51.020;6.764;2022-12-18T10:21:26;24.15;;;12.90;;
11837;SDS011;5978;51.020;6.764;2022-12-18T10:26:29;19.52;;;12.70;;
11837;SDS011;5978;51.020;6.764;2022-12-18T10:28:56;22.08;;;11.75;;
11837;SDS011;5978;51.020;6.764;2022-12-18T10:31:24;23.52;;;13.18;;
11837;SDS011;5978;51.020;6.764;2022-12-18T10:33:50;17.45;;;11.15;;
11837;SDS011;5978;51.020;6.764;2022-12-18T10:36:16;26.77;;;13.15;;
11837;SDS011;5978;51.020;6.764;2022-12-18T10:38:41;18.20;;;9.90;;
11837;SDS011;5978;51.020;6.764;2022-12-18T10:44:09;16.75;;;11.10;;
11837;SDS011;5978;51.020;6.764;2022-12-18T10:46:35;20.55;;;13.32;;
11837;SDS011;5978;51.020;6.764;2022-12-18T10:49:01;22.63;;;10.98;;
11837;SDS011;5978;51.020;6.764;2022-12-18T10:51:31;16.43;;;10.50;;
11837;SDS011;5978;51.020;6.764;2022-12-18T10:54:01;23.65;;;14.02;;
11837;SDS011;5978;51.020;6.764;2022-12-18T10:56:32;20.02;;;11.05;;
11837;SDS011;5978;51.020;6.764;2022-12-18T10:59:01;17.13;;;9.32;;
11837;SDS011;5978;51.020;6.764;2022-12-18T11:01:31;20.48;;;12.23;;
11837;SDS011;5978;51.020;6.764;2022-12-18T11:04:20;23.35;;;9.75;;
11837;SDS011;5978;51.020;6.764;2022-12-18T11:07:04;25.40;;;13.02;;
11837;SDS011;5978;51.020;6.764;2022-12-18T11:09:39;21.35;;;10.63;;
11837;SDS011;5978;51.020;6.764;2022-12-18T11:12:14;24.88;;;12.77;;
11837;SDS011;5978;51.020;6.764;2022-12-18T11:14:46;20.33;;;11.05;;
11837;SDS011;5978;51.020;6.764;2022-12-18T11:17:33;20.33;;;11.75;;
11837;SDS011;5978;51.020;6.764;2022-12-18T11:20:19;21.42;;;11.95;;
11837;SDS011;5978;51.020;6.764;2022-12-18T11:23:05;20.20;;;11.80;;
11837;SDS011;5978;51.020;6.764;2022-12-18T11:25:37;22.42;;;12.85;;
11837;SDS011;5978;51.020;6.764;2022-12-18T11:33:41;26.58;;;15.00;;
11837;SDS011;5978;51.020;6.764;2022-12-18T11:36:11;27.05;;;14.73;;
11837;SDS011;5978;51.020;6.764;2022-12-18T11:38:38;21.10;;;11.88;;
11837;SDS011;5978;51.020;6.764;2022-12-18T11:44:26;22.13;;;12.70;;
11837;SDS011;5978;51.020;6.764;2022-12-18T11:47:00;23.98;;;12.48;;
11837;SDS011;5978;51.020;6.764;2022-12-18T11:49:34;21.30;;;12.20;;
11837;SDS011;5978;51.020;6.764;2022-12-18T11:52:04;17.33;;;10.88;;
11837;SDS011;5978;51.020;6.764;2022-12-18T11:54:39;19.95;;;12.18;;
11837;SDS011;5978;51.020;6.764;2022-12-18T12:02:17;21.40;;;12.00;;
11837;SDS011;5978;51.020;6.764;2022-12-18T12:07:44;24.83;;;11.88;;
11837;SDS011;5978;51.020;6.764;2022-12-18T12:21:48;26.83;;;14.73;;
11837;SDS011;5978;51.020;6.764;2022-12-18T12:27:11;25.80;;;14.18;;
11837;SDS011;5978;51.020;6.764;2022-12-18T12:32:44;28.17;;;12.80;;
11837;SDS011;5978;51.020;6.764;2022-12-18T12:38:00;25.88;;;15.23;;
11837;SDS011;5978;51.020;6.764;2022-12-18T12:40:44;28.33;;;14.85;;
11837;SDS011;5978;51.020;6.764;2022-12-18T12:43:25;26.35;;;13.85;;
11837;SDS011;5978;51.020;6.764;2022-12-18T12:46:11;17.27;;;11.57;;
11837;SDS011;5978;51.020;6.764;2022-12-18T12:51:22;23.75;;;14.52;;
11837;SDS011;5978;51.020;6.764;2022-12-18T12:53:58;28.08;;;14.45;;
11837;SDS011;5978;51.020;6.764;2022-12-18T12:56:32;25.05;;;14.07;;
11837;SDS011;5978;51.020;6.764;2022-12-18T12:59:13;28.58;;;13.95;;
11837;SDS011;5978;51.020;6.764;2022-12-18T13:07:14;28.10;;;14.48;;
11837;SDS011;5978;51.020;6.764;2022-12-18T13:18:29;20.50;;;14.68;;
11837;SDS011;5978;51.020;6.764;2022-12-18T13:25:50;24.60;;;11.43;;
11837;SDS011;5978;51.020;6.764;2022-12-18T13:34:14;28.90;;;16.60;;
11837;SDS011;5978;51.020;6.764;2022-12-18T13:36:51;30.63;;;16.17;;
11837;SDS011;5978;51.020;6.764;2022-12-18T13:41:43;25.43;;;13.83;;
11837;SDS011;5978;51.020;6.764;2022-12-18T13:47:02;25.67;;;14.60;;
11837;SDS011;5978;51.020;6.764;2022-12-18T13:52:18;26.90;;;14.27;;
11837;SDS011;5978;51.020;6.764;2022-12-18T13:54:53;25.30;;;15.32;;
11837;SDS011;5978;51.020;6.764;2022-12-18T13:57:27;31.55;;;15.80;;
11837;SDS011;5978;51.020;6.764;2022-12-18T13:59:59;31.75;;;15.07;;
11837;SDS011;5978;51.020;6.764;2022-12-18T14:02:44;28.75;;;14.00;;
11837;SDS011;5978;51.020;6.764;2022-12-18T14:07:53;23.30;;;13.80;;
11837;SDS011;5978;51.020;6.764;2022-12-18T14:10:20;30.42;;;16.95;;
11837;SDS011;5978;51.020;6.764;2022-12-18T14:12:47;31.85;;;16.75;;
11837;SDS011;5978;51.020;6.764;2022-12-18T14:15:25;35.92;;;17.67;;
11837;SDS011;5978;51.020;6.764;2022-12-18T14:20:49;22.38;;;13.88;;
11837;SDS011;5978;51.020;6.764;2022-12-18T14:23:36;27.85;;;16.00;;
11837;SDS011;5978;51.020;6.764;2022-12-18T14:28:54;28.33;;;15.60;;
11837;SDS011;5978;51.020;6.764;2022-12-18T14:31:21;29.92;;;15.00;;
11837;SDS011;5978;51.020;6.764;2022-12-18T14:33:51;27.75;;;14.50;;
11837;SDS011;5978;51.020;6.764;2022-12-18T14:36:19;21.45;;;12.25;;
11837;SDS011;5978;51.020;6.764;2022-12-18T14:38:56;26.77;;;13.48;;
11837;SDS011;5978;51.020;6.764;2022-12-18T14:41:23;27.05;;;14.90;;
11837;SDS011;5978;51.020;6.764;2022-12-18T14:43:51;33.15;;;17.55;;
11837;SDS011;5978;51.020;6.764;2022-12-18T14:46:38;24.92;;;15.00;;
11837;SDS011;5978;51.020;6.764;2022-12-18T14:52:13;35.55;;;15.02;;
11837;SDS011;5978;51.020;6.764;2022-12-18T14:54:51;32.10;;;14.50;;
11837;SDS011;5978;51.020;6.764;2022-12-18T14:57:24;26.33;;;16.20;;
11837;SDS011;5978;51.020;6.764;2022-12-18T15:00:05;31.42;;;15.57;;
11837;SDS011;5978;51.020;6.764;2022-12-18T15:02:39;25.42;;;15.68;;
11837;SDS011;5978;51.020;6.764;2022-12-18T15:07:41;32.30;;;14.43;;
11837;SDS011;5978;51.020;6.764;2022-12-18T15:10:13;23.90;;;12.93;;
11837;SDS011;5978;51.020;6.764;2022-12-18T15:17:58;26.40;;;15.00;;
11837;SDS011;5978;51.020;6.764;2022-12-18T15:20:25;25.38;;;16.67;;
11837;SDS011;5978;51.020;6.764;2022-12-18T15:22:50;28.57;;;16.83;;
11837;SDS011;5978;51.020;6.764;2022-12-18T15:25:54;29.50;;;15.90;;
11837;SDS011;5978;51.020;6.764;2022-12-18T15:28:18;30.95;;;15.40;;
11837;SDS011;5978;51.020;6.764;2022-12-18T15:30:58;26.92;;;14.75;;
11837;SDS011;5978;51.020;6.764;2022-12-18T15:33:26;28.75;;;16.83;;
11837;SDS011;5978;51.020;6.764;2022-12-18T15:36:01;27.15;;;15.63;;
11837;SDS011;5978;51.020;6.764;2022-12-18T15:38:33;24.02;;;13.23;;
11837;SDS011;5978;51.020;6.764;2022-12-18T15:40:59;28.83;;;16.67;;
11837;SDS011;5978;51.020;6.764;2022-12-18T15:43:25;40.20;;;16.13;;
11837;SDS011;5978;51.020;6.764;2022-12-18T15:46:01;29.83;;;16.13;;
11837;SDS011;5978;51.020;6.764;2022-12-18T15:48:29;27.80;;;14.65;;
11837;SDS011;5978;51.020;6.764;2022-12-18T15:50:55;28.77;;;16.60;;
11837;SDS011;5978;51.020;6.764;2022-12-18T15:53:22;26.15;;;13.60;;
11837;SDS011;5978;51.020;6.764;2022-12-18T15:55:48;34.17;;;17.13;;
11837;SDS011;5978;51.020;6.764;2022-12-18T15:58:32;32.85;;;16.98;;
11837;SDS011;5978;51.020;6.764;2022-12-18T16:00:58;33.53;;;16.13;;
11837;SDS011;5978;51.020;6.764;2022-12-18T16:03:25;44.83;;;16.70;;
11837;SDS011;5978;51.020;6.764;2022-12-18T16:05:51;25.20;;;14.70;;
11837;SDS011;5978;51.020;6.764;2022-12-18T16:08:16;35.57;;;16.70;;
11837;SDS011;5978;51.020;6.764;2022-12-18T16:10:42;30.70;;;16.53;;
11837;SDS011;5978;51.020;6.764;2022-12-18T16:13:11;36.00;;;17.40;;
11837;SDS011;5978;51.020;6.764;2022-12-18T16:15:40;35.22;;;17.20;;
11837;SDS011;5978;51.020;6.764;2022-12-18T16:18:06;35.10;;;17.97;;
11837;SDS011;5978;51.020;6.764;2022-12-18T16:20:31;29.53;;;15.30;;
11837;SDS011;5978;51.020;6.764;2022-12-18T16:22:57;31.00;;;17.00;;
11837;SDS011;5978;51.020;6.764;2022-12-18T16:25:24;32.87;;;16.23;;
11837;SDS011;5978;51.020;6.764;2022-12-18T16:27:52;31.15;;;17.20;;
11837;SDS011;5978;51.020;6.764;2022-12-18T16:30:20;36.95;;;17.90;;
11837;SDS011;5978;51.020;6.764;2022-12-18T16:32:47;33.83;;;18.63;;
11837;SDS011;5978;51.020;6.764;2022-12-18T16:35:14;26.27;;;17.53;;
11837;SDS011;5978;51.020;6.764;2022-12-18T16:37:40;30.27;;;17.60;;
11837;SDS011;5978;51.020;6.764;2022-12-18T16:40:07;27.17;;;15.40;;
11837;SDS011;5978;51.020;6.764;2022-12-18T16:42:34;30.15;;;16.45;;
11837;SDS011;5978;51.020;6.764;2022-12-18T16:45:01;36.67;;;18.98;;
11837;SDS011;5978;51.020;6.764;2022-12-18T16:47:28;38.72;;;16.60;;
11837;SDS011;5978;51.020;6.764;2022-12-18T16:49:53;35.47;;;18.03;;